sensor_id;sensor_type;location;lat;lon;timestamp;P1;durP1;ratioP1;P2;durP2;ratioP2
77022;SDS011;65952;51.440;-2.054;2023-07-08T00:00:22;8.35;;;4.45;;
77022;SDS011;65952;51.440;-2.054;2023-07-08T00:02:49;8.57;;;4.20;;
77022;SDS011;65952;51.440;-2.054;2023-07-08T00:05:16;11.18;;;4.53;;
77022;SDS011;65952;51.440;-2.054;2023-07-08T00:07:43;8.82;;;4.30;;
77022;SDS011;65952;51.440;-2.054;2023-07-08T00:10:10;8.60;;;4.13;;
77022;SDS011;65952;51.440;-2.054;2023-07-08T00:12:38;8.23;;;4.35;;
77022;SDS011;65952;51.440;-2.054;2023-07-08T00:15:04;8.52;;;4.28;;
77022;SDS011;65952;51.440;-2.054;2023-07-08T00:17:30;10.23;;;4.15;;
77022;SDS011;65952;51.440;-2.054;2023-07-08T00:19:55;9.18;;;4.70;;
77022;SDS011;65952;51.440;-2.054;2023-07-08T00:22:20;8.57;;;4.30;;
77022;SDS011;65952;51.440;-2.054;2023-07-08T00:24:49;12.55;;;5.00;;
77022;SDS011;65952;51.440;-2.054;2023-07-08T00:27:15;8.63;;;4.43;;
77022;SDS011;65952;51.440;-2.054;2023-07-08T00:29:41;9.35;;;4.20;;
77022;SDS011;65952;51.440;-2.054;2023-07-08T00:32:14;8.73;;;4.05;;
77022;SDS011;65952;51.440;-2.054;2023-07-08T00:34:40;9.45;;;4.35;;
77022;SDS011;65952;51.440;-2.054;2023-07-08T00:37:08;8.60;;;4.32;;
77022;SDS011;65952;51.440;-2.054;2023-07-08T00:39:36;8.60;;;4.30;;
77022;SDS011;65952;51.440;-2.054;2023-07-08T00:42:02;7.07;;;3.78;;
77022;SDS011;65952;51.440;-2.054;2023-07-08T00:44:37;8.30;;;4.22;;
77022;SDS011;65952;51.440;-2.054;2023-07-08T00:47:04;8.20;;;4.13;;
77022;SDS011;65952;51.440;-2.054;2023-07-08T00:49:45;8.57;;;4.32;;
77022;SDS011;65952;51.440;-2.054;2023-07-08T00:52:23;9.25;;;4.28;;
77022;SDS011;65952;51.440;-2.054;2023-07-08T00:55:04;7.47;;;3.80;;
77022;SDS011;65952;51.440;-2.054;2023-07-08T00:57:33;8.88;;;4.30;;
77022;SDS011;65952;51.440;-2.054;2023-07-08T01:00:03;9.27;;;3.97;;
77022;SDS011;65952;51.440;-2.054;2023-07-08T01:02:31;9.55;;;4.05;;
77022;SDS011;65952;51.440;-2.054;2023-07-08T01:05:17;8.23;;;4.18;;
77022;SDS011;65952;51.440;-2.054;2023-07-08T01:07:48;9.52;;;4.40;;
77022;SDS011;65952;51.440;-2.054;2023-07-08T01:10:17;10.70;;;4.13;;
77022;SDS011;65952;51.440;-2.054;2023-07-08T01:12:49;9.20;;;4.25;;
77022;SDS011;65952;51.440;-2.054;2023-07-08T01:15:20;7.87;;;4.10;;
77022;SDS011;65952;51.440;-2.054;2023-07-08T01:17:48;9.05;;;4.10;;
77022;SDS011;65952;51.440;-2.054;2023-07-08T01:20:18;7.90;;;4.07;;
77022;SDS011;65952;51.440;-2.054;2023-07-08T01:22:44;8.60;;;3.95;;
77022;SDS011;65952;51.440;-2.054;2023-07-08T01:25:10;12.63;;;4.10;;
77022;SDS011;65952;51.440;-2.054;2023-07-08T01:27:39;8.27;;;3.83;;
77022;SDS011;65952;51.440;-2.054;2023-07-08T01:30:09;8.07;;;3.85;;
77022;SDS011;65952;51.440;-2.054;2023-07-08T01:32:39;8.02;;;4.20;;
77022;SDS011;65952;51.440;-2.054;2023-07-08T01:35:11;11.90;;;3.70;;
77022;SDS011;65952;51.440;-2.054;2023-07-08T01:37:38;9.45;;;3.75;;
77022;SDS011;65952;51.440;-2.054;2023-07-08T01:40:13;8.55;;;4.18;;
77022;SDS011;65952;51.440;-2.054;2023-07-08T01:42:41;6.15;;;3.47;;
77022;SDS011;65952;51.440;-2.054;2023-07-08T01:45:10;10.00;;;4.18;;
77022;SDS011;65952;51.440;-2.054;2023-07-08T01:47:38;7.35;;;3.45;;
77022;SDS011;65952;51.440;-2.054;2023-07-08T01:50:06;7.75;;;4.00;;
77022;SDS011;65952;51.440;-2.054;2023-07-08T01:52:32;9.05;;;3.83;;
77022;SDS011;65952;51.440;-2.054;2023-07-08T01:54:57;8.02;;;3.78;;
77022;SDS011;65952;51.440;-2.054;2023-07-08T01:57:23;6.82;;;3.80;;
77022;SDS011;65952;51.440;-2.054;2023-07-08T01:59:48;7.35;;;3.65;;
77022;SDS011;65952;51.440;-2.054;2023-07-08T02:02:13;8.00;;;4.10;;
77022;SDS011;65952;51.440;-2.054;2023-07-08T02:04:39;6.70;;;3.55;;
77022;SDS011;65952;51.440;-2.054;2023-07-08T02:07:04;7.03;;;3.78;;
77022;SDS011;65952;51.440;-2.054;2023-07-08T02:09:30;8.93;;;3.65;;
77022;SDS011;65952;51.440;-2.054;2023-07-08T02:11:56;6.05;;;3.45;;
77022;SDS011;65952;51.440;-2.054;2023-07-08T02:14:21;8.45;;;4.00;;
77022;SDS011;65952;51.440;-2.054;2023-07-08T02:16:47;7.45;;;4.03;;
77022;SDS011;65952;51.440;-2.054;2023-07-08T02:19:13;7.30;;;3.90;;
77022;SDS011;65952;51.440;-2.054;2023-07-08T02:21:38;7.28;;;3.72;;
77022;SDS011;65952;51.440;-2.054;2023-07-08T02:24:04;8.55;;;3.75;;
77022;SDS011;65952;51.440;-2.054;2023-07-08T02:26:30;7.07;;;3.88;;
77022;SDS011;65952;51.440;-2.054;2023-07-08T02:28:57;9.35;;;4.13;;
77022;SDS011;65952;51.440;-2.054;2023-07-08T02:31:23;7.85;;;3.95;;
77022;SDS011;65952;51.440;-2.054;2023-07-08T02:33:49;7.03;;;3.53;;
77022;SDS011;65952;51.440;-2.054;2023-07-08T02:36:15;8.85;;;4.15;;
77022;SDS011;65952;51.440;-2.054;2023-07-08T02:38:40;7.45;;;3.67;;
77022;SDS011;65952;51.440;-2.054;2023-07-08T02:41:06;7.13;;;3.90;;
77022;SDS011;65952;51.440;-2.054;2023-07-08T02:43:33;7.28;;;3.72;;
77022;SDS011;65952;51.440;-2.054;2023-07-08T02:45:58;7.72;;;3.72;;
77022;SDS011;65952;51.440;-2.054;2023-07-08T02:48:23;8.65;;;3.95;;
77022;SDS011;65952;51.440;-2.054;2023-07-08T02:50:49;8.23;;;3.70;;
77022;SDS011;65952;51.440;-2.054;2023-07-08T02:53:14;8.63;;;3.78;;
77022;SDS011;65952;51.440;-2.054;2023-07-08T02:55:39;7.15;;;3.90;;
77022;SDS011;65952;51.440;-2.054;2023-07-08T02:58:07;6.57;;;3.75;;
77022;SDS011;65952;51.440;-2.054;2023-07-08T03:00:34;11.80;;;4.18;;
77022;SDS011;65952;51.440;-2.054;2023-07-08T03:03:02;8.73;;;3.47;;
77022;SDS011;65952;51.440;-2.054;2023-07-08T03:05:28;8.18;;;3.70;;
77022;SDS011;65952;51.440;-2.054;2023-07-08T03:07:54;10.02;;;3.88;;
77022;SDS011;65952;51.440;-2.054;2023-07-08T03:10:19;8.70;;;3.83;;
77022;SDS011;65952;51.440;-2.054;2023-07-08T03:12:44;9.95;;;4.13;;
77022;SDS011;65952;51.440;-2.054;2023-07-08T03:15:10;6.82;;;3.85;;
77022;SDS011;65952;51.440;-2.054;2023-07-08T03:17:35;6.28;;;3.78;;
77022;SDS011;65952;51.440;-2.054;2023-07-08T03:20:00;7.35;;;3.80;;
77022;SDS011;65952;51.440;-2.054;2023-07-08T03:22:26;8.55;;;3.83;;
77022;SDS011;65952;51.440;-2.054;2023-07-08T03:24:51;8.48;;;3.70;;
77022;SDS011;65952;51.440;-2.054;2023-07-08T03:27:17;7.40;;;4.05;;
77022;SDS011;65952;51.440;-2.054;2023-07-08T03:29:42;7.38;;;4.00;;
77022;SDS011;65952;51.440;-2.054;2023-07-08T03:32:11;6.95;;;3.80;;
77022;SDS011;65952;51.440;-2.054;2023-07-08T03:34:37;6.47;;;3.90;;
77022;SDS011;65952;51.440;-2.054;2023-07-08T03:37:03;6.70;;;3.60;;
77022;SDS011;65952;51.440;-2.054;2023-07-08T03:39:29;7.82;;;3.63;;
77022;SDS011;65952;51.440;-2.054;2023-07-08T03:41:56;7.25;;;3.83;;
77022;SDS011;65952;51.440;-2.054;2023-07-08T03:44:22;7.93;;;3.92;;
77022;SDS011;65952;51.440;-2.054;2023-07-08T03:46:48;8.63;;;4.07;;
77022;SDS011;65952;51.440;-2.054;2023-07-08T03:49:14;7.35;;;3.65;;
77022;SDS011;65952;51.440;-2.054;2023-07-08T03:51:40;8.18;;;3.60;;
77022;SDS011;65952;51.440;-2.054;2023-07-08T03:54:08;7.25;;;3.88;;
77022;SDS011;65952;51.440;-2.054;2023-07-08T03:56:36;8.15;;;3.80;;
77022;SDS011;65952;51.440;-2.054;2023-07-08T03:59:01;7.38;;;4.10;;
77022;SDS011;65952;51.440;-2.054;2023-07-08T04:01:27;7.78;;;4.22;;
77022;SDS011;65952;51.440;-2.054;2023-07-08T04:03:53;8.02;;;3.88;;
77022;SDS011;65952;51.440;-2.054;2023-07-08T04:06:20;10.75;;;4.03;;
77022;SDS011;65952;51.440;-2.054;2023-07-08T04:08:46;8.07;;;3.88;;
77022;SDS011;65952;51.440;-2.054;2023-07-08T04:11:12;9.75;;;4.18;;
77022;SDS011;65952;51.440;-2.054;2023-07-08T04:13:40;8.20;;;3.83;;
77022;SDS011;65952;51.440;-2.054;2023-07-08T04:16:06;6.53;;;3.97;;
77022;SDS011;65952;51.440;-2.054;2023-07-08T04:18:32;8.90;;;4.35;;
77022;SDS011;65952;51.440;-2.054;2023-07-08T04:20:57;11.57;;;3.90;;
77022;SDS011;65952;51.440;-2.054;2023-07-08T04:23:24;7.45;;;4.30;;
77022;SDS011;65952;51.440;-2.054;2023-07-08T04:25:50;6.88;;;3.95;;
77022;SDS011;65952;51.440;-2.054;2023-07-08T04:28:19;12.40;;;4.47;;
77022;SDS011;65952;51.440;-2.054;2023-07-08T04:30:45;10.25;;;4.22;;
77022;SDS011;65952;51.440;-2.054;2023-07-08T04:33:11;9.32;;;4.20;;
77022;SDS011;65952;51.440;-2.054;2023-07-08T04:35:37;9.52;;;4.07;;
77022;SDS011;65952;51.440;-2.054;2023-07-08T04:38:05;7.30;;;4.03;;
77022;SDS011;65952;51.440;-2.054;2023-07-08T04:40:35;6.75;;;4.03;;
77022;SDS011;65952;51.440;-2.054;2023-07-08T04:43:07;10.45;;;4.40;;
77022;SDS011;65952;51.440;-2.054;2023-07-08T04:45:35;8.45;;;4.22;;
77022;SDS011;65952;51.440;-2.054;2023-07-08T04:48:02;9.60;;;4.63;;
77022;SDS011;65952;51.440;-2.054;2023-07-08T04:50:33;6.85;;;3.85;;
77022;SDS011;65952;51.440;-2.054;2023-07-08T04:52:59;9.20;;;4.30;;
77022;SDS011;65952;51.440;-2.054;2023-07-08T04:55:25;12.40;;;4.70;;
77022;SDS011;65952;51.440;-2.054;2023-07-08T04:57:50;10.23;;;4.40;;
77022;SDS011;65952;51.440;-2.054;2023-07-08T05:00:16;7.72;;;4.30;;
77022;SDS011;65952;51.440;-2.054;2023-07-08T05:02:44;7.55;;;4.10;;
77022;SDS011;65952;51.440;-2.054;2023-07-08T05:05:10;8.25;;;4.25;;
77022;SDS011;65952;51.440;-2.054;2023-07-08T05:07:35;9.13;;;4.10;;
77022;SDS011;65952;51.440;-2.054;2023-07-08T05:10:01;9.25;;;4.07;;
77022;SDS011;65952;51.440;-2.054;2023-07-08T05:12:27;6.93;;;4.25;;
77022;SDS011;65952;51.440;-2.054;2023-07-08T05:14:52;9.52;;;5.18;;
77022;SDS011;65952;51.440;-2.054;2023-07-08T05:17:17;10.00;;;4.43;;
77022;SDS011;65952;51.440;-2.054;2023-07-08T05:19:43;13.93;;;4.88;;
77022;SDS011;65952;51.440;-2.054;2023-07-08T05:22:10;9.10;;;4.05;;
77022;SDS011;65952;51.440;-2.054;2023-07-08T05:24:36;8.43;;;4.00;;
77022;SDS011;65952;51.440;-2.054;2023-07-08T05:27:02;9.00;;;4.30;;
77022;SDS011;65952;51.440;-2.054;2023-07-08T05:29:28;10.30;;;4.30;;
77022;SDS011;65952;51.440;-2.054;2023-07-08T05:31:53;9.50;;;4.47;;
77022;SDS011;65952;51.440;-2.054;2023-07-08T05:34:19;9.60;;;4.53;;
77022;SDS011;65952;51.440;-2.054;2023-07-08T05:36:44;11.73;;;4.30;;
77022;SDS011;65952;51.440;-2.054;2023-07-08T05:39:10;10.07;;;4.35;;
77022;SDS011;65952;51.440;-2.054;2023-07-08T05:41:35;9.05;;;4.45;;
77022;SDS011;65952;51.440;-2.054;2023-07-08T05:44:01;9.80;;;4.28;;
77022;SDS011;65952;51.440;-2.054;2023-07-08T05:46:26;8.32;;;3.97;;
77022;SDS011;65952;51.440;-2.054;2023-07-08T05:48:52;9.38;;;4.05;;
77022;SDS011;65952;51.440;-2.054;2023-07-08T05:51:17;9.80;;;4.25;;
77022;SDS011;65952;51.440;-2.054;2023-07-08T05:53:42;8.57;;;3.92;;
77022;SDS011;65952;51.440;-2.054;2023-07-08T05:56:08;10.18;;;4.18;;
77022;SDS011;65952;51.440;-2.054;2023-07-08T05:58:34;8.68;;;4.10;;
77022;SDS011;65952;51.440;-2.054;2023-07-08T06:00:59;7.13;;;3.72;;
77022;SDS011;65952;51.440;-2.054;2023-07-08T06:03:24;8.63;;;3.97;;
77022;SDS011;65952;51.440;-2.054;2023-07-08T06:05:50;8.25;;;4.00;;
77022;SDS011;65952;51.440;-2.054;2023-07-08T06:08:16;8.38;;;3.83;;
77022;SDS011;65952;51.440;-2.054;2023-07-08T06:10:42;9.40;;;3.95;;
77022;SDS011;65952;51.440;-2.054;2023-07-08T06:13:10;8.73;;;4.03;;
77022;SDS011;65952;51.440;-2.054;2023-07-08T06:15:36;8.80;;;4.22;;
77022;SDS011;65952;51.440;-2.054;2023-07-08T06:18:01;8.93;;;4.10;;
77022;SDS011;65952;51.440;-2.054;2023-07-08T06:20:28;7.95;;;3.88;;
77022;SDS011;65952;51.440;-2.054;2023-07-08T06:22:54;6.57;;;3.60;;
77022;SDS011;65952;51.440;-2.054;2023-07-08T06:25:19;9.05;;;4.32;;
77022;SDS011;65952;51.440;-2.054;2023-07-08T06:27:45;8.30;;;3.65;;
77022;SDS011;65952;51.440;-2.054;2023-07-08T06:30:10;9.43;;;4.32;;
77022;SDS011;65952;51.440;-2.054;2023-07-08T06:32:36;7.07;;;3.88;;
77022;SDS011;65952;51.440;-2.054;2023-07-08T06:35:02;8.32;;;3.58;;
77022;SDS011;65952;51.440;-2.054;2023-07-08T06:37:28;10.48;;;3.72;;
77022;SDS011;65952;51.440;-2.054;2023-07-08T06:39:53;6.80;;;3.17;;
77022;SDS011;65952;51.440;-2.054;2023-07-08T06:42:19;5.75;;;3.10;;
77022;SDS011;65952;51.440;-2.054;2023-07-08T06:44:44;8.00;;;3.70;;
77022;SDS011;65952;51.440;-2.054;2023-07-08T06:47:16;8.27;;;3.60;;
77022;SDS011;65952;51.440;-2.054;2023-07-08T06:49:42;8.70;;;3.20;;
77022;SDS011;65952;51.440;-2.054;2023-07-08T06:52:08;7.15;;;3.00;;
77022;SDS011;65952;51.440;-2.054;2023-07-08T06:54:34;5.93;;;3.40;;
77022;SDS011;65952;51.440;-2.054;2023-07-08T06:56:59;7.97;;;3.20;;
77022;SDS011;65952;51.440;-2.054;2023-07-08T06:59:24;6.78;;;3.30;;
77022;SDS011;65952;51.440;-2.054;2023-07-08T07:01:50;6.22;;;3.28;;
77022;SDS011;65952;51.440;-2.054;2023-07-08T07:04:15;6.25;;;3.20;;
77022;SDS011;65952;51.440;-2.054;2023-07-08T07:06:40;8.07;;;3.10;;
77022;SDS011;65952;51.440;-2.054;2023-07-08T07:09:06;7.43;;;2.83;;
77022;SDS011;65952;51.440;-2.054;2023-07-08T07:11:31;8.63;;;2.97;;
77022;SDS011;65952;51.440;-2.054;2023-07-08T07:13:56;11.68;;;3.38;;
77022;SDS011;65952;51.440;-2.054;2023-07-08T07:16:22;6.97;;;2.53;;
77022;SDS011;65952;51.440;-2.054;2023-07-08T07:18:48;6.50;;;2.97;;
77022;SDS011;65952;51.440;-2.054;2023-07-08T07:21:14;6.47;;;3.08;;
77022;SDS011;65952;51.440;-2.054;2023-07-08T07:23:40;5.60;;;2.60;;
77022;SDS011;65952;51.440;-2.054;2023-07-08T07:26:05;10.65;;;2.90;;
77022;SDS011;65952;51.440;-2.054;2023-07-08T07:28:32;8.57;;;3.28;;
77022;SDS011;65952;51.440;-2.054;2023-07-08T07:30:58;7.35;;;2.88;;
77022;SDS011;65952;51.440;-2.054;2023-07-08T07:33:24;7.50;;;2.78;;
77022;SDS011;65952;51.440;-2.054;2023-07-08T07:35:51;8.68;;;2.90;;
77022;SDS011;65952;51.440;-2.054;2023-07-08T07:38:16;6.55;;;2.88;;
77022;SDS011;65952;51.440;-2.054;2023-07-08T07:40:42;8.48;;;3.42;;
77022;SDS011;65952;51.440;-2.054;2023-07-08T07:43:08;6.97;;;3.08;;
77022;SDS011;65952;51.440;-2.054;2023-07-08T07:45:33;5.80;;;2.60;;
77022;SDS011;65952;51.440;-2.054;2023-07-08T07:47:59;10.18;;;2.80;;
77022;SDS011;65952;51.440;-2.054;2023-07-08T07:50:24;6.22;;;2.75;;
77022;SDS011;65952;51.440;-2.054;2023-07-08T07:52:49;9.52;;;2.90;;
77022;SDS011;65952;51.440;-2.054;2023-07-08T07:55:15;7.13;;;2.80;;
77022;SDS011;65952;51.440;-2.054;2023-07-08T07:57:40;5.70;;;2.70;;
77022;SDS011;65952;51.440;-2.054;2023-07-08T08:00:07;7.40;;;2.83;;
77022;SDS011;65952;51.440;-2.054;2023-07-08T08:02:34;7.70;;;2.80;;
77022;SDS011;65952;51.440;-2.054;2023-07-08T08:05:00;6.15;;;2.83;;
77022;SDS011;65952;51.440;-2.054;2023-07-08T08:07:25;12.07;;;3.10;;
77022;SDS011;65952;51.440;-2.054;2023-07-08T08:09:51;6.60;;;2.88;;
77022;SDS011;65952;51.440;-2.054;2023-07-08T08:12:16;5.63;;;2.88;;
77022;SDS011;65952;51.440;-2.054;2023-07-08T08:14:41;10.65;;;3.20;;
77022;SDS011;65952;51.440;-2.054;2023-07-08T08:17:07;6.93;;;3.17;;
77022;SDS011;65952;51.440;-2.054;2023-07-08T08:19:32;7.50;;;3.00;;
77022;SDS011;65952;51.440;-2.054;2023-07-08T08:21:58;5.95;;;3.00;;
77022;SDS011;65952;51.440;-2.054;2023-07-08T08:24:28;8.02;;;3.00;;
77022;SDS011;65952;51.440;-2.054;2023-07-08T08:26:54;8.25;;;3.05;;
77022;SDS011;65952;51.440;-2.054;2023-07-08T08:29:19;6.30;;;2.95;;
77022;SDS011;65952;51.440;-2.054;2023-07-08T08:31:45;6.65;;;3.05;;
77022;SDS011;65952;51.440;-2.054;2023-07-08T08:34:10;8.75;;;2.92;;
77022;SDS011;65952;51.440;-2.054;2023-07-08T08:36:35;8.07;;;2.88;;
77022;SDS011;65952;51.440;-2.054;2023-07-08T08:39:01;7.43;;;3.47;;
77022;SDS011;65952;51.440;-2.054;2023-07-08T08:41:30;7.30;;;3.50;;
77022;SDS011;65952;51.440;-2.054;2023-07-08T08:43:57;7.43;;;3.10;;
77022;SDS011;65952;51.440;-2.054;2023-07-08T08:51:24;7.50;;;3.05;;
77022;SDS011;65952;51.440;-2.054;2023-07-08T08:53:55;8.43;;;3.15;;
77022;SDS011;65952;51.440;-2.054;2023-07-08T08:56:24;6.32;;;3.00;;
77022;SDS011;65952;51.440;-2.054;2023-07-08T08:58:58;8.60;;;3.33;;
77022;SDS011;65952;51.440;-2.054;2023-07-08T09:01:28;9.10;;;3.40;;
77022;SDS011;65952;51.440;-2.054;2023-07-08T09:03:56;8.05;;;3.20;;
77022;SDS011;65952;51.440;-2.054;2023-07-08T09:06:26;8.52;;;3.20;;
77022;SDS011;65952;51.440;-2.054;2023-07-08T09:08:54;8.02;;;3.40;;
77022;SDS011;65952;51.440;-2.054;2023-07-08T09:11:39;7.50;;;3.40;;
77022;SDS011;65952;51.440;-2.054;2023-07-08T09:14:15;8.38;;;3.40;;
77022;SDS011;65952;51.440;-2.054;2023-07-08T09:16:50;6.03;;;3.15;;
77022;SDS011;65952;51.440;-2.054;2023-07-08T09:19:26;9.82;;;3.45;;
77022;SDS011;65952;51.440;-2.054;2023-07-08T09:25:01;9.85;;;3.55;;
77022;SDS011;65952;51.440;-2.054;2023-07-08T09:27:33;5.35;;;2.88;;
77022;SDS011;65952;51.440;-2.054;2023-07-08T09:29:59;6.68;;;2.92;;
77022;SDS011;65952;51.440;-2.054;2023-07-08T09:32:26;7.78;;;3.08;;
77022;SDS011;65952;51.440;-2.054;2023-07-08T09:34:53;8.07;;;3.20;;
77022;SDS011;65952;51.440;-2.054;2023-07-08T09:39:51;8.40;;;3.08;;
77022;SDS011;65952;51.440;-2.054;2023-07-08T09:42:18;7.40;;;3.53;;
77022;SDS011;65952;51.440;-2.054;2023-07-08T09:44:47;10.18;;;3.70;;
77022;SDS011;65952;51.440;-2.054;2023-07-08T09:47:20;8.38;;;3.25;;
77022;SDS011;65952;51.440;-2.054;2023-07-08T09:49:59;8.82;;;3.58;;
77022;SDS011;65952;51.440;-2.054;2023-07-08T09:52:26;7.72;;;3.47;;
77022;SDS011;65952;51.440;-2.054;2023-07-08T09:54:54;8.60;;;3.13;;
77022;SDS011;65952;51.440;-2.054;2023-07-08T09:57:22;10.18;;;3.38;;
77022;SDS011;65952;51.440;-2.054;2023-07-08T09:59:55;7.70;;;3.40;;
77022;SDS011;65952;51.440;-2.054;2023-07-08T10:04:58;7.80;;;3.10;;
77022;SDS011;65952;51.440;-2.054;2023-07-08T10:07:27;9.52;;;3.70;;
77022;SDS011;65952;51.440;-2.054;2023-07-08T10:09:55;8.48;;;3.15;;
77022;SDS011;65952;51.440;-2.054;2023-07-08T10:12:23;9.07;;;3.33;;
77022;SDS011;65952;51.440;-2.054;2023-07-08T10:14:54;7.20;;;3.30;;
77022;SDS011;65952;51.440;-2.054;2023-07-08T10:17:24;6.68;;;3.00;;
77022;SDS011;65952;51.440;-2.054;2023-07-08T10:19:50;6.03;;;3.10;;
77022;SDS011;65952;51.440;-2.054;2023-07-08T10:27:50;8.05;;;3.50;;
77022;SDS011;65952;51.440;-2.054;2023-07-08T10:30:23;8.10;;;3.03;;
77022;SDS011;65952;51.440;-2.054;2023-07-08T10:35:54;8.50;;;3.28;;
77022;SDS011;65952;51.440;-2.054;2023-07-08T10:41:30;7.90;;;3.08;;
77022;SDS011;65952;51.440;-2.054;2023-07-08T10:44:34;7.88;;;3.20;;
77022;SDS011;65952;51.440;-2.054;2023-07-08T10:52:43;10.43;;;3.58;;
77022;SDS011;65952;51.440;-2.054;2023-07-08T11:09:07;7.43;;;3.20;;
77022;SDS011;65952;51.440;-2.054;2023-07-08T11:14:29;8.45;;;3.50;;
77022;SDS011;65952;51.440;-2.054;2023-07-08T11:17:09;8.63;;;3.53;;
77022;SDS011;65952;51.440;-2.054;2023-07-08T11:19:45;8.40;;;3.28;;
77022;SDS011;65952;51.440;-2.054;2023-07-08T11:22:29;10.35;;;3.65;;
77022;SDS011;65952;51.440;-2.054;2023-07-08T11:24:58;9.75;;;3.53;;
77022;SDS011;65952;51.440;-2.054;2023-07-08T11:27:27;5.90;;;3.35;;
77022;SDS011;65952;51.440;-2.054;2023-07-08T11:30:06;6.57;;;3.10;;
77022;SDS011;65952;51.440;-2.054;2023-07-08T11:35:05;8.30;;;3.47;;
77022;SDS011;65952;51.440;-2.054;2023-07-08T11:37:38;7.93;;;3.67;;
77022;SDS011;65952;51.440;-2.054;2023-07-08T11:45:00;6.25;;;3.20;;
77022;SDS011;65952;51.440;-2.054;2023-07-08T11:47:37;9.52;;;3.85;;
77022;SDS011;65952;51.440;-2.054;2023-07-08T11:50:13;9.10;;;3.50;;
77022;SDS011;65952;51.440;-2.054;2023-07-08T11:52:54;8.88;;;4.00;;
77022;SDS011;65952;51.440;-2.054;2023-07-08T11:55:44;7.93;;;3.67;;
77022;SDS011;65952;51.440;-2.054;2023-07-08T11:58:24;6.78;;;3.40;;
77022;SDS011;65952;51.440;-2.054;2023-07-08T12:00:58;6.97;;;3.45;;
77022;SDS011;65952;51.440;-2.054;2023-07-08T12:03:31;7.18;;;3.67;;
77022;SDS011;65952;51.440;-2.054;2023-07-08T12:06:00;7.55;;;3.38;;
77022;SDS011;65952;51.440;-2.054;2023-07-08T12:08:36;7.43;;;3.55;;
77022;SDS011;65952;51.440;-2.054;2023-07-08T12:11:08;6.97;;;3.42;;
77022;SDS011;65952;51.440;-2.054;2023-07-08T12:13:37;10.82;;;3.75;;
77022;SDS011;65952;51.440;-2.054;2023-07-08T12:16:04;7.47;;;3.22;;
77022;SDS011;65952;51.440;-2.054;2023-07-08T12:18:36;9.07;;;3.50;;
77022;SDS011;65952;51.440;-2.054;2023-07-08T12:21:05;6.97;;;3.40;;
77022;SDS011;65952;51.440;-2.054;2023-07-08T12:23:32;8.70;;;3.40;;
77022;SDS011;65952;51.440;-2.054;2023-07-08T12:25:58;7.20;;;3.65;;
77022;SDS011;65952;51.440;-2.054;2023-07-08T12:28:24;7.78;;;3.50;;
77022;SDS011;65952;51.440;-2.054;2023-07-08T12:30:50;7.70;;;3.47;;
77022;SDS011;65952;51.440;-2.054;2023-07-08T12:33:18;7.63;;;3.45;;
77022;SDS011;65952;51.440;-2.054;2023-07-08T12:35:47;8.00;;;3.50;;
77022;SDS011;65952;51.440;-2.054;2023-07-08T12:38:32;9.00;;;3.65;;
77022;SDS011;65952;51.440;-2.054;2023-07-08T12:41:01;7.40;;;3.53;;
77022;SDS011;65952;51.440;-2.054;2023-07-08T12:45:58;9.15;;;3.35;;
77022;SDS011;65952;51.440;-2.054;2023-07-08T12:48:24;9.80;;;3.58;;
77022;SDS011;65952;51.440;-2.054;2023-07-08T12:50:49;7.47;;;3.40;;
77022;SDS011;65952;51.440;-2.054;2023-07-08T12:53:15;7.63;;;3.35;;
77022;SDS011;65952;51.440;-2.054;2023-07-08T12:55:41;6.03;;;3.20;;
77022;SDS011;65952;51.440;-2.054;2023-07-08T12:58:47;9.35;;;3.40;;
77022;SDS011;65952;51.440;-2.054;2023-07-08T13:01:08;6.95;;;3.22;;
77022;SDS011;65952;51.440;-2.054;2023-07-08T13:03:42;7.45;;;3.40;;
77022;SDS011;65952;51.440;-2.054;2023-07-08T13:06:10;8.55;;;3.63;;
77022;SDS011;65952;51.440;-2.054;2023-07-08T13:08:37;9.85;;;3.67;;
77022;SDS011;65952;51.440;-2.054;2023-07-08T13:11:04;7.97;;;3.63;;
77022;SDS011;65952;51.440;-2.054;2023-07-08T13:13:33;13.38;;;3.95;;
77022;SDS011;65952;51.440;-2.054;2023-07-08T13:16:01;9.02;;;4.07;;
77022;SDS011;65952;51.440;-2.054;2023-07-08T13:18:37;9.00;;;3.78;;
77022;SDS011;65952;51.440;-2.054;2023-07-08T13:21:06;9.90;;;3.83;;
77022;SDS011;65952;51.440;-2.054;2023-07-08T13:23:39;10.65;;;3.67;;
77022;SDS011;65952;51.440;-2.054;2023-07-08T13:26:11;8.32;;;4.00;;
77022;SDS011;65952;51.440;-2.054;2023-07-08T13:28:45;10.90;;;3.75;;
77022;SDS011;65952;51.440;-2.054;2023-07-08T13:33:49;9.43;;;3.53;;
77022;SDS011;65952;51.440;-2.054;2023-07-08T13:36:17;7.25;;;3.67;;
77022;SDS011;65952;51.440;-2.054;2023-07-08T13:38:44;8.45;;;3.33;;
77022;SDS011;65952;51.440;-2.054;2023-07-08T13:41:11;9.35;;;3.55;;
77022;SDS011;65952;51.440;-2.054;2023-07-08T13:43:45;9.20;;;3.67;;
77022;SDS011;65952;51.440;-2.054;2023-07-08T13:46:28;7.68;;;3.10;;
77022;SDS011;65952;51.440;-2.054;2023-07-08T13:49:00;10.25;;;3.58;;
77022;SDS011;65952;51.440;-2.054;2023-07-08T13:51:37;9.20;;;3.58;;
77022;SDS011;65952;51.440;-2.054;2023-07-08T13:54:14;8.20;;;3.17;;
77022;SDS011;65952;51.440;-2.054;2023-07-08T13:56:44;5.95;;;3.00;;
77022;SDS011;65952;51.440;-2.054;2023-07-08T13:59:10;8.98;;;3.35;;
77022;SDS011;65952;51.440;-2.054;2023-07-08T14:01:40;6.97;;;3.20;;
77022;SDS011;65952;51.440;-2.054;2023-07-08T14:04:09;9.35;;;3.30;;
77022;SDS011;65952;51.440;-2.054;2023-07-08T14:06:39;9.23;;;3.20;;
77022;SDS011;65952;51.440;-2.054;2023-07-08T14:09:15;8.43;;;3.40;;
77022;SDS011;65952;51.440;-2.054;2023-07-08T14:11:43;7.93;;;3.33;;
77022;SDS011;65952;51.440;-2.054;2023-07-08T14:14:09;9.90;;;3.30;;
77022;SDS011;65952;51.440;-2.054;2023-07-08T14:16:36;8.88;;;3.72;;
77022;SDS011;65952;51.440;-2.054;2023-07-08T14:19:05;6.70;;;3.10;;
77022;SDS011;65952;51.440;-2.054;2023-07-08T14:21:33;6.57;;;3.10;;
77022;SDS011;65952;51.440;-2.054;2023-07-08T14:24:01;8.18;;;3.60;;
77022;SDS011;65952;51.440;-2.054;2023-07-08T14:26:28;7.50;;;3.30;;
77022;SDS011;65952;51.440;-2.054;2023-07-08T14:28:54;8.65;;;3.53;;
77022;SDS011;65952;51.440;-2.054;2023-07-08T14:31:23;8.40;;;3.38;;
77022;SDS011;65952;51.440;-2.054;2023-07-08T14:33:52;10.05;;;4.00;;
77022;SDS011;65952;51.440;-2.054;2023-07-08T14:36:28;7.32;;;3.60;;
77022;SDS011;65952;51.440;-2.054;2023-07-08T14:38:53;7.47;;;3.30;;
77022;SDS011;65952;51.440;-2.054;2023-07-08T14:41:19;8.35;;;3.35;;
77022;SDS011;65952;51.440;-2.054;2023-07-08T14:43:44;7.88;;;3.22;;
77022;SDS011;65952;51.440;-2.054;2023-07-08T14:46:10;9.25;;;4.13;;
77022;SDS011;65952;51.440;-2.054;2023-07-08T14:48:35;8.55;;;3.42;;
77022;SDS011;65952;51.440;-2.054;2023-07-08T14:51:01;9.43;;;3.40;;
77022;SDS011;65952;51.440;-2.054;2023-07-08T14:53:26;8.30;;;3.15;;
77022;SDS011;65952;51.440;-2.054;2023-07-08T14:55:52;7.82;;;3.42;;
77022;SDS011;65952;51.440;-2.054;2023-07-08T14:58:23;9.25;;;3.50;;
77022;SDS011;65952;51.440;-2.054;2023-07-08T15:00:54;7.57;;;3.00;;
77022;SDS011;65952;51.440;-2.054;2023-07-08T15:03:21;10.30;;;3.05;;
77022;SDS011;65952;51.440;-2.054;2023-07-08T15:05:48;8.38;;;3.75;;
77022;SDS011;65952;51.440;-2.054;2023-07-08T15:08:13;8.40;;;3.10;;
77022;SDS011;65952;51.440;-2.054;2023-07-08T15:10:39;7.70;;;2.88;;
77022;SDS011;65952;51.440;-2.054;2023-07-08T15:13:09;9.27;;;3.10;;
77022;SDS011;65952;51.440;-2.054;2023-07-08T15:15:35;7.78;;;2.80;;
77022;SDS011;65952;51.440;-2.054;2023-07-08T15:18:01;6.75;;;2.95;;
77022;SDS011;65952;51.440;-2.054;2023-07-08T15:20:31;7.28;;;3.28;;
77022;SDS011;65952;51.440;-2.054;2023-07-08T15:22:57;10.57;;;3.33;;
77022;SDS011;65952;51.440;-2.054;2023-07-08T15:25:22;6.70;;;2.67;;
77022;SDS011;65952;51.440;-2.054;2023-07-08T15:27:51;6.97;;;2.80;;
77022;SDS011;65952;51.440;-2.054;2023-07-08T15:30:22;5.43;;;2.60;;
77022;SDS011;65952;51.440;-2.054;2023-07-08T15:32:49;6.78;;;2.85;;
77022;SDS011;65952;51.440;-2.054;2023-07-08T15:35:23;6.97;;;2.83;;
77022;SDS011;65952;51.440;-2.054;2023-07-08T15:37:57;5.30;;;2.63;;